Time;durP1;ratioP1;P1;durP2;ratioP2;P2;SDS_P1;SDS_P2;PMS_P1;PMS_P2;Temp;Humidity;BMP_temperature;BMP_pressure;BME280_temperature;BME280_humidity;BME280_pressure;Samples;Min_cycle;Max_cycle;Signal;HPM_P1;HPM_P2
2022/04/23 00:01:43;;;;;;;;;26.67;26.67;14.80;99.90;;;;;;5097621;28;8756;-60
2022/04/23 00:04:13;;;;;;;;;22.33;21.67;15.00;99.90;;;;;;5097431;28;8788;-60
2022/04/23 00:06:39;;;;;;;;;31.00;29.00;15.90;99.90;;;;;;5097330;28;8772;-61
2022/04/23 00:09:06;;;;;;;;;30.33;26.67;16.50;99.90;;;;;;5097488;28;8806;-62
2022/04/23 00:11:35;;;;;;;;;31.33;28.67;17.10;99.90;;;;;;5097409;28;8768;-61
2022/04/23 00:14:01;;;;;;;;;35.33;32.00;16.80;99.90;;;;;;5097447;28;8764;-60
2022/04/23 00:16:27;;;;;;;;;34.67;32.33;17.40;99.90;;;;;;5097204;28;8815;-61
2022/04/23 00:18:53;;;;;;;;;34.33;31.67;17.40;99.90;;;;;;5097063;28;8790;-63
2022/04/23 00:21:19;;;;;;;;;29.00;27.00;17.70;99.90;;;;;;5096928;28;8776;-63
2022/04/23 00:23:47;;;;;;;;;26.33;25.00;17.80;99.90;;;;;;5096754;28;8799;-61
2022/04/23 00:26:13;;;;;;;;;22.33;19.67;16.90;99.90;;;;;;5096803;28;8783;-62
2022/04/23 00:28:39;;;;;;;;;26.33;24.67;17.00;99.90;;;;;;5096733;28;8892;-63
2022/04/23 00:31:05;;;;;;;;;25.67;25.00;17.30;99.90;;;;;;5097043;28;8760;-60
2022/04/23 00:33:34;;;;;;;;;26.33;26.33;17.50;99.90;;;;;;5097078;28;8759;-60
2022/04/23 00:35:59;;;;;;;;;33.00;28.67;17.50;99.90;;;;;;5097299;28;8891;-62
2022/04/23 00:38:25;;;;;;;;;33.00;32.67;17.70;99.90;;;;;;5096897;28;8784;-61
2022/04/23 00:40:51;;;;;;;;;22.00;21.33;17.80;99.90;;;;;;5095943;28;8798;-61
2022/04/23 00:43:28;;;;;;;;;28.67;23.67;17.70;99.90;;;;;;5096828;28;8772;-57
2022/04/23 00:45:55;;;;;;;;;29.00;29.00;17.90;99.90;;;;;;5096478;28;8795;-61
2022/04/23 00:48:21;;;;;;;;;22.67;22.67;17.80;99.90;;;;;;5095778;27;8800;-61
2022/04/23 00:50:52;;;;;;;;;20.33;20.33;17.60;99.90;;;;;;5096396;28;8870;-61
2022/04/23 00:53:21;;;;;;;;;27.00;24.67;17.50;99.90;;;;;;5096361;28;8756;-61
2022/04/23 00:55:47;;;;;;;;;23.00;21.00;17.50;99.90;;;;;;5096306;28;8774;-60
2022/04/23 00:58:17;;;;;;;;;26.00;26.00;17.20;99.90;;;;;;5096429;28;8803;-61
2022/04/23 01:00:46;;;;;;;;;26.00;25.00;16.70;99.90;;;;;;5096197;28;8763;-59
2022/04/23 01:03:13;;;;;;;;;29.00;27.67;16.40;99.90;;;;;;5096188;28;8779;-59
2022/04/23 01:05:44;;;;;;;;;30.33;29.67;16.70;99.90;;;;;;5096153;28;8768;-62
2022/04/23 01:08:14;;;;;;;;;26.00;23.67;17.00;99.90;;;;;;5096030;28;8811;-62
2022/04/23 01:10:42;;;;;;;;;28.67;26.00;16.40;99.90;;;;;;5096360;28;8772;-59
2022/04/23 01:13:08;;;;;;;;;31.00;29.00;15.70;99.90;;;;;;5096096;28;8771;-61
2022/04/23 01:15:34;;;;;;;;;34.00;30.33;15.40;99.90;;;;;;5095864;28;8764;-61
2022/04/23 01:18:00;;;;;;;;;28.00;26.33;15.70;99.90;;;;;;5096200;28;8783;-59
2022/04/23 01:20:26;;;;;;;;;26.33;26.33;16.00;99.90;;;;;;5096156;28;8775;-61
2022/04/23 01:22:51;;;;;;;;;23.33;20.00;16.70;99.90;;;;;;5095785;28;8885;-60
2022/04/23 01:25:17;;;;;;;;;24.33;23.33;17.00;99.90;;;;;;5096023;28;8782;-60
2022/04/23 01:27:48;;;;;;;;;23.33;22.00;16.50;99.90;;;;;;5095691;28;8767;-60
2022/04/23 01:30:15;;;;;;;;;26.33;26.00;15.60;99.90;;;;;;5095722;28;8764;-60
2022/04/23 01:32:41;;;;;;;;;22.67;22.67;15.50;99.90;;;;;;5095167;28;9244;-60
2022/04/23 01:35:07;;;;;;;;;26.00;25.33;15.90;99.90;;;;;;5077657;28;8776;-62
2022/04/23 01:37:33;;;;;;;;;23.00;23.00;16.50;99.90;;;;;;5095769;28;8845;-60
2022/04/23 01:39:59;;;;;;;;;27.00;24.00;16.60;99.90;;;;;;5095753;28;8772;-62
2022/04/23 01:42:24;;;;;;;;;27.33;25.67;17.00;99.90;;;;;;5095666;28;8767;-60
2022/04/23 01:44:51;;;;;;;;;25.33;23.33;17.30;99.90;;;;;;5095429;28;8756;-60
2022/04/23 01:47:18;;;;;;;;;23.00;22.00;17.40;99.90;;;;;;5095689;28;8922;-60
2022/04/23 01:49:44;;;;;;;;;20.00;20.00;17.40;99.90;;;;;;5095542;28;8900;-60
2022/04/23 01:52:11;;;;;;;;;27.00;22.00;17.50;99.90;;;;;;5094499;28;8756;-61
2022/04/23 01:54:37;;;;;;;;;30.33;28.67;17.50;99.90;;;;;;5095574;28;8787;-62
2022/04/23 01:57:03;;;;;;;;;30.33;27.33;17.50;99.90;;;;;;5095132;28;8787;-62
2022/04/23 01:59:30;;;;;;;;;21.67;20.33;17.50;99.90;;;;;;5095124;28;8894;-59
2022/04/23 02:01:56;;;;;;;;;26.67;26.00;17.30;99.90;;;;;;5095350;28;8807;-60
2022/04/23 02:04:22;;;;;;;;;35.00;32.00;17.40;99.90;;;;;;5095046;28;8793;-61
2022/04/23 02:06:48;;;;;;;;;32.67;30.00;17.40;99.90;;;;;;5095239;28;8806;-62
2022/04/23 02:09:14;;;;;;;;;31.67;31.67;17.50;99.90;;;;;;5094885;28;8795;-60
2022/04/23 02:11:40;;;;;;;;;30.67;29.33;17.30;99.90;;;;;;5095221;28;8776;-61
2022/04/23 02:14:06;;;;;;;;;24.33;23.33;17.40;99.90;;;;;;5095150;28;8763;-59
2022/04/23 02:16:33;;;;;;;;;31.33;31.33;17.20;99.90;;;;;;5095043;28;8830;-61
2022/04/23 02:18:59;;;;;;;;;30.67;28.00;16.90;99.90;;;;;;5095122;28;8775;-60
2022/04/23 02:21:25;;;;;;;;;29.33;28.67;16.50;99.90;;;;;;5094583;28;8850;-58
2022/04/23 02:23:53;;;;;;;;;29.00;28.67;16.00;99.90;;;;;;5094805;28;8782;-61
2022/04/23 02:26:22;;;;;;;;;29.00;28.00;15.80;99.90;;;;;;5094776;28;8776;-61
2022/04/23 02:28:48;;;;;;;;;29.33;28.67;15.80;99.90;;;;;;5094635;28;8811;-60
2022/04/23 02:31:14;;;;;;;;;24.33;24.33;15.70;99.90;;;;;;5094910;28;8755;-60
2022/04/23 02:33:40;;;;;;;;;29.67;27.00;16.20;99.90;;;;;;5110561;28;8756;-61
2022/04/23 02:36:07;;;;;;;;;26.00;25.00;16.40;99.90;;;;;;5094621;28;8748;-60
2022/04/23 02:38:34;;;;;;;;;26.33;26.33;16.50;99.90;;;;;;5094793;28;8841;-60
2022/04/23 02:41:00;;;;;;;;;26.33;26.33;16.60;99.90;;;;;;5094785;28;8775;-61
2022/04/23 02:43:26;;;;;;;;;29.67;29.33;16.70;99.90;;;;;;5094562;28;8756;-61
2022/04/23 02:45:52;;;;;;;;;26.67;26.00;16.40;99.90;;;;;;5094486;28;8841;-60
2022/04/23 02:48:18;;;;;;;;;32.00;30.00;15.70;99.90;;;;;;5094404;28;8803;-60
2022/04/23 02:50:45;;;;;;;;;25.67;23.33;15.70;99.90;;;;;;5094695;28;9444;-60
2022/04/23 02:53:11;;;;;;;;;28.00;27.00;15.70;99.90;;;;;;5094484;28;8853;-60
2022/04/23 02:55:38;;;;;;;;;26.33;26.00;15.20;99.90;;;;;;5094689;28;8772;-60
2022/04/23 02:58:09;;;;;;;;;28.33;26.00;14.90;99.90;;;;;;5094635;28;8772;-61
2022/04/23 03:00:35;;;;;;;;;28.00;27.67;15.20;99.90;;;;;;5094627;28;8764;-59
2022/04/23 03:03:01;;;;;;;;;30.67;30.33;15.00;99.90;;;;;;5095821;28;8756;-60
2022/04/23 03:05:27;;;;;;;;;29.33;29.00;15.10;99.90;;;;;;5098447;28;8778;-58
2022/04/23 03:07:53;;;;;;;;;28.00;28.00;15.40;99.90;;;;;;5098347;28;8771;-60
2022/04/23 03:10:20;;;;;;;;;39.33;34.00;15.30;99.90;;;;;;5098622;28;9441;-60
2022/04/23 03:12:46;;;;;;;;;38.00;34.67;15.60;99.90;;;;;;5098576;28;8767;-60
2022/04/23 03:15:18;;;;;;;;;36.00;33.00;15.60;99.90;;;;;;5098464;28;8763;-59
2022/04/23 03:17:45;;;;;;;;;34.67;33.33;15.30;99.90;;;;;;5080856;28;8808;-59
2022/04/23 03:20:12;;;;;;;;;30.00;27.67;15.00;99.90;;;;;;5098139;28;8775;-58
2022/04/23 03:22:42;;;;;;;;;26.00;23.67;15.30;99.90;;;;;;5098024;28;8808;-59
2022/04/23 03:25:12;;;;;;;;;28.33;27.00;15.40;99.90;;;;;;5098270;28;8775;-61
2022/04/23 03:27:38;;;;;;;;;30.33;29.67;15.50;99.90;;;;;;5098069;28;8829;-59
2022/04/23 03:30:06;;;;;;;;;30.00;28.00;15.70;99.90;;;;;;5098194;28;8819;-58
2022/04/23 03:32:32;;;;;;;;;24.00;24.00;15.90;99.90;;;;;;5098125;28;8806;-61
2022/04/23 03:34:59;;;;;;;;;27.33;25.67;16.30;99.90;;;;;;5097887;28;8775;-58
2022/04/23 03:37:25;;;;;;;;;28.33;26.00;16.60;99.90;;;;;;5098130;28;8772;-61
2022/04/23 03:39:51;;;;;;;;;30.67;30.33;16.80;99.90;;;;;;5107867;27;8896;-61
2022/04/23 03:42:16;;;;;;;;;29.33;29.33;16.70;99.90;;;;;;5112195;28;8766;-59
2022/04/23 03:44:42;;;;;;;;;30.67;29.33;16.90;99.90;;;;;;5097969;28;8792;-61
2022/04/23 03:47:08;;;;;;;;;26.33;22.67;16.90;99.90;;;;;;5097945;28;8939;-61
2022/04/23 03:49:34;;;;;;;;;27.67;27.67;16.70;99.90;;;;;;5097627;28;8815;-61
2022/04/23 03:51:59;;;;;;;;;32.00;30.00;16.90;99.90;;;;;;5097873;28;8760;-61
2022/04/23 03:54:26;;;;;;;;;37.33;32.33;16.90;99.90;;;;;;5097801;28;8787;-59
2022/04/23 03:56:52;;;;;;;;;31.00;29.33;16.50;99.90;;;;;;5097603;28;8840;-59
2022/04/23 03:59:21;;;;;;;;;33.67;29.67;16.40;99.90;;;;;;5097697;28;8806;-59
2022/04/23 04:01:48;;;;;;;;;29.67;28.67;16.40;99.90;;;;;;5097583;28;9515;-61
2022/04/23 04:04:16;;;;;;;;;35.25;33.75;16.60;99.90;;;;;;5097725;28;8756;-59
2022/04/23 04:06:42;;;;;;;;;40.75;35.50;16.40;99.90;;;;;;5097635;28;8748;-59
2022/04/23 04:09:08;;;;;;;;;42.00;36.25;16.00;99.90;;;;;;5097482;28;8834;-60
2022/04/23 04:14:19;;;;;;;;;39.75;35.75;16.40;99.90;;;;;;5096273;28;8720;-59
2022/04/23 04:16:48;;;;;;;;;30.50;29.00;16.60;99.90;;;;;;5097468;28;8807;-61
2022/04/23 04:19:17;;;;;;;;;43.75;36.25;16.90;99.90;;;;;;5097395;28;8826;-60
2022/04/23 04:21:43;;;;;;;;;40.75;34.50;16.70;99.90;;;;;;5097078;28;8834;-58
2022/04/23 04:24:14;;;;;;;;;49.25;37.75;16.90;99.90;;;;;;5096995;28;8760;-61
2022/04/23 04:26:44;;;;;;;;;47.50;40.50;17.10;99.90;;;;;;5097222;28;8802;-59
2022/04/23 04:29:10;;;;;;;;;42.50;36.00;17.00;99.90;;;;;;5078955;28;8827;-61
2022/04/23 04:31:50;;;;;;;;;45.50;39.25;17.10;99.90;;;;;;5096797;28;8764;-61
2022/04/23 04:34:17;;;;;;;;;44.25;39.00;17.10;99.90;;;;;;5096776;28;8861;-61
2022/04/23 04:36:47;;;;;;;;;51.75;41.50;17.10;99.90;;;;;;5096619;28;8752;-61
2022/04/23 04:39:15;;;;;;;;;49.25;41.75;17.00;99.90;;;;;;5104766;27;8779;-60
2022/04/23 04:41:41;;;;;;;;;50.50;41.00;17.00;99.90;;;;;;5117774;27;8786;-61
2022/04/23 04:44:07;;;;;;;;;55.75;44.00;17.00;99.90;;;;;;5117305;28;9423;-62
2022/04/23 04:46:34;;;;;;;;;55.25;46.00;17.10;99.90;;;;;;5117135;28;8868;-60
2022/04/23 04:49:01;;;;;;;;;48.50;39.25;17.20;99.90;;;;;;5117073;28;8789;-61
2022/04/23 04:51:27;;;;;;;;;51.00;42.25;17.30;99.90;;;;;;5116850;28;8754;-60
2022/04/23 04:53:53;;;;;;;;;53.00;43.50;17.20;99.90;;;;;;5098850;28;8817;-59
2022/04/23 04:56:20;;;;;;;;;52.25;42.25;17.20;99.90;;;;;;5116699;28;8826;-59
2022/04/23 04:58:46;;;;;;;;;48.75;38.75;17.20;99.90;;;;;;5116937;28;8769;-62
2022/04/23 05:01:13;;;;;;;;;44.25;38.00;17.10;99.90;;;;;;5116805;28;8765;-59
2022/04/23 05:03:40;;;;;;;;;47.25;38.75;17.10;99.90;;;;;;5116562;28;8757;-61
2022/04/23 05:06:12;;;;;;;;;50.50;40.75;17.20;99.90;;;;;;5116584;28;8845;-62
2022/04/23 05:08:38;;;;;;;;;46.50;40.25;17.50;99.90;;;;;;5116723;28;8844;-59
2022/04/23 05:11:05;;;;;;;;;44.00;38.75;17.60;99.90;;;;;;5116473;28;8765;-61
2022/04/23 05:13:31;;;;;;;;;44.00;35.00;17.50;99.90;;;;;;5116723;28;8749;-59
2022/04/23 05:15:58;;;;;;;;;36.67;32.00;17.70;99.90;;;;;;5116604;28;8793;-63
2022/04/23 05:18:24;;;;;;;;;40.00;33.00;17.20;99.90;;;;;;5116342;28;8905;-59
2022/04/23 05:20:50;;;;;;;;;38.33;33.33;17.20;99.90;;;;;;5116257;28;8769;-61
2022/04/23 05:23:16;;;;;;;;;47.25;39.75;17.00;99.90;;;;;;5116121;28;8939;-61
2022/04/23 05:25:42;;;;;;;;;50.50;43.00;16.90;99.90;;;;;;5116283;28;8753;-61
2022/04/23 05:28:08;;;;;;;;;57.25;47.00;17.40;99.90;;;;;;5116292;28;8774;-60
2022/04/23 05:30:37;;;;;;;;;53.50;43.00;17.60;99.90;;;;;;5116267;28;8884;-61
2022/04/23 05:33:05;;;;;;;;;53.75;44.00;17.90;99.90;;;;;;5096346;28;8801;-61
2022/04/23 05:35:31;;;;;;;;;54.00;42.50;17.90;99.90;;;;;;5115943;28;8749;-62
2022/04/23 05:37:56;;;;;;;;;51.75;43.00;18.00;99.90;;;;;;5115900;28;8866;-61
2022/04/23 05:40:22;;;;;;;;;42.50;36.50;18.10;88.30;;;;;;5116096;28;8813;-59
2022/04/23 05:42:48;;;;;;;;;38.33;32.67;17.40;91.80;;;;;;5115721;28;8857;-60
2022/04/23 05:45:14;;;;;;;;;36.67;34.00;17.00;92.30;;;;;;5115834;28;8762;-61
2022/04/23 05:47:42;;;;;;;;;42.33;36.00;16.90;96.00;;;;;;5115615;28;8841;-62
2022/04/23 05:50:09;;;;;;;;;39.67;34.00;17.20;93.60;;;;;;5115627;28;8805;-60
2022/04/23 05:52:35;;;;;;;;;45.00;39.33;17.00;92.90;;;;;;5115948;28;8778;-61
2022/04/23 05:55:01;;;;;;;;;43.67;37.00;16.60;99.90;;;;;;5115452;28;9384;-63
2022/04/23 05:57:27;;;;;;;;;42.67;34.67;17.30;96.90;;;;;;5115714;28;8766;-63
2022/04/23 05:59:53;;;;;;;;;39.00;35.00;18.00;90.10;;;;;;5115454;28;8781;-63
2022/04/23 06:02:18;;;;;;;;;39.67;35.33;17.40;91.30;;;;;;5115503;28;8890;-60
2022/04/23 06:04:45;;;;;;;;;30.33;30.00;17.30;94.10;;;;;;5115577;28;8831;-59
2022/04/23 06:07:11;;;;;;;;;39.33;34.00;16.40;97.30;;;;;;5115467;28;9555;-58
2022/04/23 06:09:37;;;;;;;;;33.00;31.33;15.90;99.90;;;;;;5115449;28;8802;-60
2022/04/23 06:12:03;;;;;;;;;31.67;31.33;15.80;99.90;;;;;;5097246;28;9450;-60
2022/04/23 06:14:28;;;;;;;;;29.00;28.00;15.90;99.90;;;;;;5115312;28;8770;-59
2022/04/23 06:16:54;;;;;;;;;35.67;33.00;16.80;99.90;;;;;;5115585;28;8813;-61
2022/04/23 06:19:20;;;;;;;;;39.00;32.67;17.20;97.70;;;;;;5115170;28;9439;-60
2022/04/23 06:21:46;;;;;;;;;36.33;34.00;17.20;96.10;;;;;;5115026;28;8829;-59
2022/04/23 06:24:11;;;;;;;;;28.33;26.67;16.80;97.20;;;;;;5115321;28;8742;-59
2022/04/23 06:26:38;;;;;;;;;32.67;29.00;17.10;97.90;;;;;;5115376;28;8783;-60
2022/04/23 06:29:03;;;;;;;;;36.00;34.00;17.40;93.60;;;;;;5114983;28;8794;-62
2022/04/23 06:31:29;;;;;;;;;39.00;35.33;17.30;90.80;;;;;;5114971;28;8777;-66
2022/04/23 06:33:55;;;;;;;;;29.00;29.00;16.80;94.10;;;;;;5115082;28;8785;-64
2022/04/23 06:36:21;;;;;;;;;29.67;26.67;17.20;92.80;;;;;;5115078;28;8838;-64
2022/04/23 06:38:47;;;;;;;;;26.33;26.00;17.00;93.50;;;;;;5096673;28;8797;-63
2022/04/23 06:41:13;;;;;;;;;26.00;24.00;16.50;97.50;;;;;;5094758;28;8787;-64
2022/04/23 06:43:38;;;;;;;;;24.33;23.00;16.30;99.90;;;;;;5094758;28;8776;-63
2022/04/23 06:46:04;;;;;;;;;20.33;20.33;16.40;99.90;;;;;;5094387;28;8799;-66
2022/04/23 06:48:30;;;;;;;;;24.00;22.67;16.40;99.90;;;;;;5094560;28;8888;-64
2022/04/23 06:50:56;;;;;;;;;19.67;19.00;16.30;98.30;;;;;;5093858;28;8755;-64
2022/04/23 06:53:21;;;;;;;;;22.00;22.00;16.50;97.40;;;;;;5094368;28;8864;-64
2022/04/23 06:55:47;;;;;;;;;20.67;20.67;16.30;99.10;;;;;;5094496;28;8764;-66
2022/04/23 06:58:14;;;;;;;;;20.67;19.00;16.30;97.40;;;;;;5094576;28;9445;-65
2022/04/23 07:00:41;;;;;;;;;23.33;22.00;16.00;98.20;;;;;;5094358;28;8903;-63
2022/04/23 07:03:07;;;;;;;;;26.33;25.00;15.70;99.90;;;;;;5106187;28;8847;-64
2022/04/23 07:05:33;;;;;;;;;25.33;25.33;16.20;99.90;;;;;;5104090;28;8918;-64
2022/04/23 07:08:03;;;;;;;;;30.67;28.00;16.50;98.90;;;;;;5094514;28;8770;-65
2022/04/23 07:10:30;;;;;;;;;31.00;30.00;16.40;97.50;;;;;;5094500;28;8782;-64
2022/04/23 07:12:56;;;;;;;;;26.67;26.67;16.00;99.90;;;;;;5094240;28;8764;-65
2022/04/23 07:15:24;;;;;;;;;39.33;34.33;15.80;99.90;;;;;;5094274;28;8807;-64
2022/04/23 07:17:51;;;;;;;;;32.33;31.33;16.20;99.90;;;;;;5094250;28;8790;-65
2022/04/23 07:20:18;;;;;;;;;38.67;33.00;16.10;99.90;;;;;;5093953;28;8802;-64
2022/04/23 07:24:03;;;;;;;;;32.00;30.00;16.40;99.90;;;;;;5093953;28;8830;-64
2022/04/23 07:25:34;;;;;;;;;37.33;32.33;17.40;95.30;;;;;;5094042;28;8852;-64
2022/04/23 07:28:00;;;;;;;;;38.00;34.00;17.60;87.00;;;;;;5094244;28;8751;-65
2022/04/23 07:30:27;;;;;;;;;34.33;33.33;17.70;88.10;;;;;;5095320;28;8764;-65
2022/04/23 07:32:57;;;;;;;;;30.00;29.00;17.80;85.80;;;;;;5103994;27;8807;-62
2022/04/23 07:38:13;;;;;;;;;22.33;19.67;17.40;88.60;;;;;;5113752;28;9349;-65
2022/04/23 07:40:40;;;;;;;;;21.00;20.00;18.00;82.20;;;;;;5123399;27;8868;-65
2022/04/23 07:43:10;;;;;;;;;19.00;18.00;17.30;80.50;;;;;;5131244;27;8851;-65
2022/04/23 07:45:39;;;;;;;;;20.67;20.67;16.30;91.00;;;;;;5134789;27;8764;-66
2022/04/23 07:48:06;;;;;;;;;19.67;19.67;16.60;92.70;;;;;;5115662;28;8819;-66
2022/04/23 07:50:37;;;;;;;;;19.67;19.67;16.90;90.40;;;;;;5106890;28;9547;-64
2022/04/23 07:53:03;;;;;;;;;23.67;21.00;17.00;88.70;;;;;;5120871;27;8782;-65
2022/04/23 07:55:33;;;;;;;;;21.33;17.67;17.20;89.90;;;;;;5114096;28;8781;-66
2022/04/23 07:57:59;;;;;;;;;28.00;24.33;17.80;82.90;;;;;;5106300;28;8788;-66
2022/04/23 08:00:26;;;;;;;;;22.33;19.67;17.20;85.40;;;;;;5108204;27;8811;-65
2022/04/23 08:02:52;;;;;;;;;19.67;19.67;17.10;85.80;;;;;;5110916;28;8778;-64
2022/04/23 08:05:19;;;;;;;;;22.00;22.00;17.40;87.70;;;;;;5112265;27;8791;-68
2022/04/23 08:07:44;;;;;;;;;21.33;21.00;17.40;85.60;;;;;;5088732;28;8798;-66
2022/04/23 08:10:11;;;;;;;;;21.00;20.67;17.70;81.80;;;;;;5121279;27;8800;-64
2022/04/23 08:12:37;;;;;;;;;18.67;18.67;17.80;77.20;;;;;;5135371;27;8878;-66
2022/04/23 08:15:06;;;;;;;;;25.33;21.67;17.50;78.80;;;;;;5108013;28;8814;-64
2022/04/23 08:17:33;;;;;;;;;18.33;18.33;17.50;81.40;;;;;;5099798;28;8812;-66
2022/04/23 08:19:59;;;;;;;;;18.67;16.67;17.20;80.70;;;;;;5109622;28;8818;-64
2022/04/23 08:22:25;;;;;;;;;20.33;20.33;17.30;80.60;;;;;;5111074;27;9519;-66
2022/04/23 08:24:51;;;;;;;;;19.33;19.33;17.50;77.90;;;;;;5096838;28;8768;-61
2022/04/23 08:27:17;;;;;;;;;16.67;16.33;17.80;78.20;;;;;;5110690;28;8801;-65
2022/04/23 08:32:27;;;;;;;;;17.00;16.33;17.20;78.90;;;;;;5117035;28;8722;-64
2022/04/23 08:34:53;;;;;;;;;18.33;18.33;16.80;81.00;;;;;;5134310;27;8868;-66
2022/04/23 08:37:22;;;;;;;;;14.67;14.33;16.70;85.00;;;;;;5131539;27;8785;-64
2022/04/23 08:39:48;;;;;;;;;15.67;15.00;17.00;81.20;;;;;;5117191;28;8766;-65
2022/04/23 08:42:16;;;;;;;;;17.00;17.00;17.30;76.50;;;;;;5110649;28;8858;-64
2022/04/23 08:44:43;;;;;;;;;18.33;16.67;17.40;79.40;;;;;;5100742;28;8800;-65
2022/04/23 08:47:11;;;;;;;;;15.00;15.00;17.50;75.00;;;;;;5106009;28;8799;-61
2022/04/23 08:49:41;;;;;;;;;16.33;16.33;17.90;75.30;;;;;;5096425;28;8823;-64
2022/04/23 08:52:21;;;;;;;;;13.67;12.33;17.80;74.50;;;;;;5104262;28;8761;-63
2022/04/23 08:54:47;;;;;;;;;17.00;17.00;17.40;75.60;;;;;;5107430;27;8994;-61
2022/04/23 08:57:13;;;;;;;;;17.00;16.33;17.60;74.40;;;;;;5102819;28;8788;-61
2022/04/23 08:59:42;;;;;;;;;15.67;15.33;17.80;73.70;;;;;;5093175;28;8809;-61
2022/04/23 09:02:12;;;;;;;;;17.67;16.00;17.60;73.60;;;;;;5100471;28;8780;-62
2022/04/23 09:04:42;;;;;;;;;15.33;14.67;17.70;75.00;;;;;;5099198;28;8782;-67
2022/04/23 09:07:18;;;;;;;;;22.67;20.00;17.50;73.40;;;;;;5108240;28;8774;-63
2022/04/23 09:09:49;;;;;;;;;17.67;15.33;18.20;70.60;;;;;;5095971;28;8811;-61
2022/04/23 09:12:17;;;;;;;;;14.00;14.00;18.60;69.80;;;;;;5119768;27;8835;-62
2022/04/23 09:14:44;;;;;;;;;16.67;16.00;18.50;69.10;;;;;;5105081;28;8792;-63
2022/04/23 09:25:54;;;;;;;;;15.00;15.00;18.30;69.20;;;;;;5056218;28;8816;-66
2022/04/23 09:28:23;;;;;;;;;16.00;14.00;18.00;69.80;;;;;;5054741;28;9545;-62
2022/04/23 09:30:52;;;;;;;;;15.33;15.33;18.20;68.30;;;;;;5063323;28;8785;-64
2022/04/23 09:33:21;;;;;;;;;16.00;15.33;18.30;68.70;;;;;;5062273;28;8780;-64
2022/04/23 09:35:52;;;;;;;;;16.33;16.33;18.70;68.90;;;;;;5057827;28;8776;-64
2022/04/23 09:38:18;;;;;;;;;15.67;14.67;18.70;66.60;;;;;;5053071;28;8764;-63
2022/04/23 09:41:15;;;;;;;;;15.67;15.67;18.50;67.30;;;;;;5056374;28;8826;-65
2022/04/23 09:43:42;;;;;;;;;17.67;17.67;18.80;66.50;;;;;;5060706;28;8788;-63
2022/04/23 09:46:09;;;;;;;;;20.00;18.33;18.80;66.70;;;;;;5072657;28;8805;-66
2022/04/23 09:48:38;;;;;;;;;16.00;15.00;18.70;67.30;;;;;;5072800;28;8777;-66
2022/04/23 09:51:04;;;;;;;;;21.00;20.33;18.50;68.00;;;;;;5069226;28;8788;-63
2022/04/23 09:53:30;;;;;;;;;12.00;10.33;18.40;70.20;;;;;;5063851;28;8769;-61
2022/04/23 09:56:04;;;;;;;;;17.00;15.00;18.50;67.10;;;;;;5072673;28;8770;-61
2022/04/23 09:58:33;;;;;;;;;17.67;17.67;18.60;67.30;;;;;;5072720;28;8777;-62
2022/04/23 10:01:00;;;;;;;;;16.00;16.00;18.70;68.30;;;;;;5079381;28;8740;-61
2022/04/23 10:03:33;;;;;;;;;18.33;18.33;19.20;65.50;;;;;;5115378;27;8852;-63
2022/04/23 10:06:04;;;;;;;;;13.67;13.67;19.40;64.20;;;;;;5121840;27;8925;-61
2022/04/23 10:08:33;;;;;;;;;19.00;18.00;19.80;65.10;;;;;;5118291;27;8815;-62
2022/04/23 10:11:19;;;;;;;;;19.33;16.33;19.80;66.10;;;;;;5111924;27;8774;-65
2022/04/23 10:13:53;;;;;;;;;19.67;18.67;19.60;65.80;;;;;;5101188;28;8760;-66
2022/04/23 10:16:20;;;;;;;;;18.33;17.00;19.90;64.30;;;;;;5082056;28;8811;-67
2022/04/23 10:18:46;;;;;;;;;14.00;14.00;20.10;61.10;;;;;;5094787;28;9453;-65
2022/04/23 10:21:30;;;;;;;;;18.67;18.67;20.20;61.20;;;;;;5097482;28;8780;-65
2022/04/23 10:23:59;;;;;;;;;17.33;14.67;20.10;58.90;;;;;;5108291;28;8794;-63
2022/04/23 10:26:47;;;;;;;;;16.67;13.67;20.70;59.00;;;;;;5114976;28;8758;-63
2022/04/23 10:29:20;;;;;;;;;11.67;11.00;20.30;58.50;;;;;;5114888;28;8956;-63
2022/04/23 10:32:08;;;;;;;;;14.67;12.00;20.30;58.10;;;;;;5114945;28;8769;-63
2022/04/23 10:34:35;;;;;;;;;8.33;8.33;20.20;56.20;;;;;;5111726;27;11402;-62
2022/04/23 10:37:24;;;;;;;;;14.00;12.00;19.70;57.60;;;;;;5101851;28;11400;-64
2022/04/23 10:39:53;;;;;;;;;13.33;11.67;19.60;59.00;;;;;;5104877;28;8767;-62
2022/04/23 10:42:21;;;;;;;;;14.00;13.67;19.80;59.00;;;;;;5114878;28;11427;-63
2022/04/23 10:44:48;;;;;;;;;12.67;12.67;20.50;58.30;;;;;;5112640;28;11424;-61
2022/04/23 10:47:32;;;;;;;;;17.00;14.00;20.60;57.40;;;;;;5103340;28;11426;-63
2022/04/23 10:50:18;;;;;;;;;14.00;14.00;20.30;58.90;;;;;;5102890;28;8790;-63
2022/04/23 10:52:44;;;;;;;;;13.00;13.00;20.50;61.80;;;;;;5111327;28;11453;-63
2022/04/23 10:55:12;;;;;;;;;15.00;15.00;21.40;57.90;;;;;;5104149;28;8766;-63
2022/04/23 10:57:39;;;;;;;;;12.33;12.33;21.90;56.50;;;;;;5106185;28;11436;-63
2022/04/23 11:00:16;;;;;;;;;12.67;11.33;22.30;51.50;;;;;;5100554;28;12033;-63
2022/04/23 11:02:46;;;;;;;;;16.00;13.67;22.40;49.20;;;;;;5102218;28;11418;-63
2022/04/23 11:14:36;;;;;;;;;11.33;10.67;21.90;56.00;;;;;;5096052;28;11429;-63
2022/04/23 11:17:03;;;;;;;;;9.00;9.00;22.30;50.00;;;;;;5104316;28;11410;-62
2022/04/23 11:19:30;;;;;;;;;9.00;9.00;22.80;48.50;;;;;;5085264;28;11393;-63
2022/04/23 11:21:56;;;;;;;;;17.33;15.33;22.40;48.70;;;;;;5097978;28;11440;-63
2022/04/23 11:24:24;;;;;;;;;9.75;9.25;22.50;50.90;;;;;;5107450;28;12086;-63
2022/04/23 11:26:51;;;;;;;;;13.00;11.33;22.10;48.30;;;;;;5109732;28;11513;-65
2022/04/23 11:29:21;;;;;;;;;12.67;12.67;21.90;49.90;;;;;;5118169;28;11442;-64
2022/04/23 11:31:56;;;;;;;;;11.00;11.00;21.60;50.40;;;;;;5118567;28;11484;-66
2022/04/23 11:34:22;;;;;;;;;13.67;13.67;21.70;53.30;;;;;;5106044;27;11456;-66
2022/04/23 11:36:48;;;;;;;;;9.67;9.67;22.40;54.60;;;;;;5112860;28;11492;-66
2022/04/23 11:39:14;;;;;;;;;9.67;9.67;22.70;52.20;;;;;;5109065;28;11527;-67
2022/04/23 11:41:51;;;;;;;;;12.00;11.25;23.00;52.90;;;;;;5104740;28;9630;-66
2022/04/23 11:44:45;;;;;;;;;17.33;16.00;24.20;49.80;;;;;;5102688;28;12058;-66
2022/04/23 11:47:12;;;;;;;;;12.00;12.00;23.90;48.50;;;;;;5104339;28;11463;-64
2022/04/23 11:49:38;;;;;;;;;9.00;8.75;23.70;45.50;;;;;;5108861;28;11470;-65
2022/04/23 11:52:06;;;;;;;;;11.00;11.00;23.30;47.30;;;;;;5104594;27;12035;-65
2022/04/23 11:54:38;;;;;;;;;11.00;11.00;23.00;49.50;;;;;;5115336;27;8777;-64
2022/04/23 11:57:05;;;;;;;;;13.00;13.00;22.90;46.50;;;;;;5106445;28;12142;-64
2022/04/23 11:59:50;;;;;;;;;14.00;12.00;23.90;47.50;;;;;;5111128;27;12151;-67
2022/04/23 12:02:19;;;;;;;;;10.50;9.25;24.40;44.60;;;;;;5097780;28;11452;-66
2022/04/23 12:04:46;;;;;;;;;11.00;11.00;24.50;44.10;;;;;;5108210;27;11438;-64
2022/04/23 12:07:12;;;;;;;;;12.25;12.25;24.30;46.90;;;;;;5110718;28;12188;-67
2022/04/23 12:09:55;;;;;;;;;17.00;16.00;24.30;45.90;;;;;;5098957;28;11433;-64
2022/04/23 12:12:23;;;;;;;;;14.75;13.25;24.40;44.90;;;;;;5105944;28;11466;-64
2022/04/23 12:14:51;;;;;;;;;12.50;12.50;23.70;46.80;;;;;;5097560;28;11446;-65
2022/04/23 12:17:25;;;;;;;;;11.75;11.75;24.20;44.60;;;;;;5108294;28;11446;-65
2022/04/23 12:19:54;;;;;;;;;13.00;11.75;24.30;43.90;;;;;;5098561;28;11415;-66
2022/04/23 12:22:28;;;;;;;;;16.33;13.00;24.30;43.90;;;;;;5104366;27;12468;-66
2022/04/23 12:25:18;;;;;;;;;11.25;11.25;23.50;45.20;;;;;;5107867;28;11450;-64
2022/04/23 12:28:02;;;;;;;;;13.25;13.25;23.00;46.50;;;;;;5109086;28;11501;-68
2022/04/23 12:41:59;;;;;;;;;11.00;11.00;24.70;46.00;;;;;;5137840;27;11404;-73
2022/04/23 12:44:49;;;;;;;;;12.75;12.75;25.20;43.30;;;;;;5137510;27;11485;-70
2022/04/23 12:47:33;;;;;;;;;15.50;15.50;24.30;43.70;;;;;;5137492;27;11439;-64
2022/04/23 12:50:03;;;;;;;;;10.50;9.75;24.90;44.30;;;;;;5137452;27;12138;-66
2022/04/23 12:52:32;;;;;;;;;9.50;9.50;24.90;43.70;;;;;;5137589;27;11501;-67
2022/04/23 12:55:14;;;;;;;;;6.75;6.50;24.40;45.20;;;;;;5135088;27;11392;-66
2022/04/23 12:57:52;;;;;;;;;13.00;11.75;24.30;45.20;;;;;;5105559;27;11372;-63
2022/04/23 13:00:20;;;;;;;;;9.25;9.25;24.70;43.20;;;;;;5117405;27;11432;-63
2022/04/23 13:02:50;;;;;;;;;8.50;8.50;26.70;41.20;;;;;;5128115;27;11397;-65
2022/04/23 13:05:16;;;;;;;;;10.00;10.00;30.10;35.00;;;;;;5137015;27;11482;-63
2022/04/23 13:10:27;;;;;;;;;10.25;10.25;28.30;35.90;;;;;;5121242;27;11423;-68
2022/04/23 13:12:52;;;;;;;;;8.00;8.00;26.80;37.00;;;;;;5137079;27;11764;-64
